AirNav   Phillips 66 Aviation Fuel
 
 1353 users online  

19S Sublette Municipal Airport
Sublette, Kansas, USA


FAA INFORMATION EFFECTIVE 07 DECEMBER 2017

Location

FAA Identifier: 19S
Lat/Long: 37-29-48.7000N / 100-49-58.5000W
37-29.811667N / 100-49.975000W
37.4968611 / -100.8329167
(estimated)
Elevation: 2910.7 ft. / 887.2 m (surveyed)
Variation: 09E (1985)
From city: 1 mile NE of SUBLETTE, KS
Time zone: UTC -6 (UTC -5 during Daylight Saving Time)
Zip code: 67877

Airport Operations

Airport use: Open to the public
Activation date: 06/1949
Control tower: no
ARTCC: KANSAS CITY CENTER
FSS: WICHITA FLIGHT SERVICE STATION
NOTAMs facility: ICT (NOTAM-D service available)
Attendance: UNATNDD
Wind indicator: yes
Segmented circle: no
Lights: SS-SR

Airport Communications

CTAF: 122.9
UNICOM: 122.8
WX AWOS-3: 118.4 (620-675-8371)

Nearby radio navigation aids

VOR radial/distance  VOR name  Freq  Var
GCKr180/25.8GARDEN CITY VORTAC113.3011E
LBLr003/27.9LIBERAL VORTAC112.3011E

 
NDB name  Hdg/Dist  Freq  Var  ID
ULYSSES097/26.239506EULS ..- .-.. ...
HUGOTON043/32.736509EHQG .... --.- --.

Airport Services

Parking: tiedowns
Airframe service: NONE
Powerplant service: NONE
Bottled oxygen: NONE
Bulk oxygen: NONE

Runway Information

Runway 17/35

Dimensions: 4498 x 60 ft. / 1371 x 18 m
Surface: asphalt, in good condition
Runway edge lights: low intensity
Runway edge markings: NSTD THLD BAR (TOO NARROW).
RUNWAY 17  RUNWAY 35
Latitude: 37-30.190053N37-29.448953N
Longitude: 100-50.058727W100-50.057665W
Elevation: 2909.5 ft.2907.1 ft.
Traffic pattern: leftleft
Markings: basic, in fair conditionbasic, in fair condition
Runway end identifier lights: nono
Touchdown point: yes, no lightsyes, no lights
Obstructions: road, 250 ft. from runway
ROAD AT 250 FT FROM THLD.
15 ft. fence, 200 ft. from runway
ROAD AT 100' FROM THR.

Runway 8/26

Dimensions: 2300 x 100 ft. / 701 x 30 m
Surface: turf, in fair condition
RUNWAY 8  RUNWAY 26
Latitude: 37-29.795930N37-29.793807N
Longitude: 100-50.052042W100-49.576447W
Elevation: 2908.7 ft.2910.6 ft.
Traffic pattern: leftleft
Runway end identifier lights: nono
Touchdown point: yes, no lightsyes, no lights
Obstructions: road, 165 ft. from runway
RY 17/35 AT 35 FT FM END.
10 ft. tower, 130 ft. from runway

Airport Ownership and Management from official FAA records

Ownership: Publicly-owned
Owner: CITY OF SUBLETTE
BOX 934
SUBLETTE, KS 67877
Phone 620-675-2326
Manager: DILLON SHOTTON
BOX 934
SUBLETTE, KS 67877
Phone (620) 287-0505

Airport Operational Statistics

Aircraft based on the field: 3
Single engine airplanes: 3
    
Aircraft operations: avg 50/month *
50% transient general aviation
50% local general aviation
* for 12-month period ending 01 September 2015

Additional Remarks

LGTD 150' GRAIN ELEVATOR SOUTH OF RWY 08/26.
BE ALERT FOR 2 DRAINAGE PIPES CROSSING TWY TO RY 35.

Instrument Procedures

There are no published instrument procedures at 19S.

Some nearby airports with instrument procedures:

KMEJ - Meade Municipal Airport (26 nm SE)
KGCK - Garden City Regional Airport (26 nm N)
KULS - Ulysses Airport (27 nm W)
KLBL - Liberal Mid-America Regional Airport (28 nm S)
KHQG - Hugoton Municipal Airport (33 nm SW)
 
Loc | Ops | Rwys | IFR | FBO | Links
Com | Nav | Svcs | Stats | Notes

Kansas City Aviation Department
 
Area around 19S (Sublette Municipal Airport)
 
Road maps at: MapQuest Bing Google
 
Aerial photo
WARNING: Photo may not be current or correct
Aerial photo of 19S (Sublette Municipal Airport)
Photo by Von Rothenberger
Photo taken 13-Aug-2010
looking south.

Do you have a better or more recent aerial photo of Sublette Municipal Airport that you would like to share? If so, please send us your photo.

 
Sectional chart

 
Airport distance calculator
Flying to Sublette Municipal Airport? Find the distance to fly.

From to 19S

Sunrise and sunset
Times for 18-Dec-2017
 Local
(UTC-6)
 Zulu
(UTC)
Morning civil twilight07:2413:24
Sunrise07:5413:54
Sunset17:2623:26
Evening civil twilight17:5623:56

Current date and time
Zulu (UTC)  18-Dec-2017 13:58:22
Local (UTC-6)  18-Dec-2017 07:58:22
 
METAR
KGCK 
26nm N 
181354Z 13007KT 1 1/4SM BR MIFG CLR M08/M09 A3005 RMK AO2 SLP202 I1000 T10781089
KLBL 
29nm S 
181356Z AUTO 27008KT 10SM CLR M08/M09 A3007 RMK AO2 SLP213 T10781094 FZRANO
KHQG 
33nm SW 
181355Z AUTO 25006KT 10SM CLR M08/M10 A3007 RMK AO2 T10771101
KJHN 
43nm W 
181355Z AUTO 24007KT 10SM CLR M06/M07 A3004 RMK AO2 T10581074
KDDC 
44nm E 
181352Z AUTO 21006KT 5SM BR CLR M04/M07 A3008 RMK AO2 SLP209 T10441067
TAF
KGCK 
26nm N 
181259Z 1813/1912 00000KT 3SM BR SKC FM181500 22010G15KT P6SM SKC FM190000 19006KT P6SM SKC FM190900 35009KT P6SM SKC
KLBL 
29nm S 
181259Z 1813/1912 25006KT P6SM SKC FM181500 21010G15KT P6SM SKC FM190000 18008KT P6SM SKC FM190600 29007KT P6SM SKC FM190900 32008KT P6SM SKC
NOTAMs
Click for the latest NOTAMs
NOTAMs are issued by the DoD/FAA and will open in a separate window not controlled by AirNav.

 

 
 

Would you like to see your business listed on this page?

 If your business provides an interesting product or service to pilots, flight crews, aircraft, or users of the Sublette Municipal Airport, you should consider listing it here.  To start the listing process, click on the button below
 
Add a business
 

Other Pages about Sublette Municipal Airport

Update a link
 
Copyright © AirNav, LLC. All rights reserved. Privacy Policy  Contact